createdAt,value
2023-04-22T00:02:06.743Z,100182.34
2023-04-22T00:04:34.230Z,100172.22
2023-04-22T00:07:01.467Z,100179.66
2023-04-22T00:09:28.107Z,100174.66
2023-04-22T00:11:54.711Z,100175.13
2023-04-22T00:14:21.657Z,100173.81
2023-04-22T00:16:48.265Z,100170.84
2023-04-22T00:19:14.871Z,100170.13
2023-04-22T00:21:41.597Z,100176.47
2023-04-22T00:24:08.339Z,100168.44
2023-04-22T00:26:34.988Z,100169.44
2023-04-22T00:29:01.628Z,100176.47
2023-04-22T00:31:28.299Z,100172.34
2023-04-22T00:33:54.913Z,100176.00
2023-04-22T00:36:21.471Z,100176.88
2023-04-22T00:38:51.323Z,100177.31
2023-04-22T00:41:18.268Z,100172.94
2023-04-22T00:43:45.413Z,100171.03
2023-04-22T00:46:12.168Z,100174.41
2023-04-22T00:48:38.859Z,100167.34
2023-04-22T00:51:06.263Z,100178.31
2023-04-22T00:53:32.894Z,100176.59
2023-04-22T00:55:59.750Z,100174.03
2023-04-22T00:58:29.025Z,100169.94
2023-04-22T01:00:55.886Z,100175.78
2023-04-22T01:03:24.083Z,100173.81
2023-04-22T01:05:51.076Z,100176.59
2023-04-22T01:08:17.755Z,100181.97
2023-04-22T01:10:44.361Z,100177.22
2023-04-22T01:13:10.933Z,100176.50
2023-04-22T01:15:37.736Z,100171.38
2023-04-22T01:18:04.735Z,100185.84
2023-04-22T01:20:32.051Z,100172.84
2023-04-22T01:23:01.044Z,100180.97
2023-04-22T01:25:27.635Z,100183.44
2023-04-22T01:27:54.302Z,100184.88
2023-04-22T01:30:21.544Z,100187.44
2023-04-22T01:32:48.341Z,100189.72
2023-04-22T01:35:14.955Z,100187.75
2023-04-22T01:37:41.603Z,100181.06
2023-04-22T01:40:10.367Z,100183.97
2023-04-22T01:42:37.181Z,100187.88
2023-04-22T01:45:04.353Z,100190.66
2023-04-22T01:47:31.045Z,100191.75
2023-04-22T01:49:57.760Z,100194.31
2023-04-22T01:52:26.428Z,100197.72
2023-04-22T01:54:53.207Z,100192.59
2023-04-22T01:57:19.766Z,100196.34
2023-04-22T01:59:46.388Z,100194.13
2023-04-22T02:02:12.976Z,100194.69
2023-04-22T02:04:39.636Z,100189.06
2023-04-22T02:07:06.438Z,100189.66
2023-04-22T02:09:33.888Z,100177.41
2023-04-22T02:12:01.463Z,100186.53
2023-04-22T02:14:28.077Z,100180.66
2023-04-22T02:16:54.657Z,100186.00
2023-04-22T02:19:21.261Z,100185.25
2023-04-22T02:21:47.867Z,100184.53
2023-04-22T02:24:14.472Z,100185.94
2023-04-22T02:26:41.549Z,100187.13
2023-04-22T02:29:08.120Z,100181.06
2023-04-22T02:31:34.796Z,100179.56
2023-04-22T02:34:01.456Z,100181.50
2023-04-22T02:36:28.714Z,100190.16
2023-04-22T02:38:55.589Z,100193.00
2023-04-22T02:41:22.193Z,100184.78
2023-04-22T02:43:48.982Z,100182.44
2023-04-22T02:46:18.594Z,100182.44
2023-04-22T02:48:45.171Z,100181.38
2023-04-22T02:51:11.935Z,100181.63
2023-04-22T02:53:38.580Z,100183.41
2023-04-22T02:56:05.768Z,100178.28
2023-04-22T02:58:32.434Z,100183.13
2023-04-22T03:00:59.040Z,100187.81
2023-04-22T03:03:26.056Z,100189.84
2023-04-22T03:05:52.903Z,100185.16
2023-04-22T03:08:19.995Z,100184.84
2023-04-22T03:10:46.746Z,100190.06
2023-04-22T03:13:14.300Z,100188.56
2023-04-22T03:15:41.559Z,100198.53
2023-04-22T03:18:08.968Z,100195.34
2023-04-22T03:20:36.047Z,100195.97
2023-04-22T03:23:02.669Z,100193.53
2023-04-22T03:25:29.346Z,100194.59
2023-04-22T03:27:57.158Z,100200.03
2023-04-22T03:30:23.931Z,100195.66
2023-04-22T03:32:51.099Z,100202.50
2023-04-22T03:35:17.824Z,100200.25
2023-04-22T03:37:44.425Z,100200.25
2023-04-22T03:40:13.508Z,100196.59
2023-04-22T03:42:40.274Z,100199.41
2023-04-22T03:45:07.602Z,100201.84
2023-04-22T03:47:34.247Z,100206.66
2023-04-22T03:50:00.946Z,100209.75
2023-04-22T03:52:27.536Z,100197.88
2023-04-22T03:54:54.154Z,100201.31
2023-04-22T03:57:20.700Z,100218.28
2023-04-22T03:59:47.315Z,100215.47
2023-04-22T04:02:13.987Z,100208.34
2023-04-22T04:04:41.160Z,100203.34
2023-04-22T04:07:08.370Z,100214.84
2023-04-22T04:09:34.939Z,100216.16
2023-04-22T04:12:01.482Z,100217.44
2023-04-22T04:14:28.107Z,100219.91
2023-04-22T04:16:54.695Z,100218.69
2023-04-22T04:19:21.559Z,100218.59
2023-04-22T04:21:48.193Z,100222.34
2023-04-22T04:24:14.773Z,100225.97
2023-04-22T04:26:41.617Z,100225.97
2023-04-22T04:29:08.707Z,100225.97
2023-04-22T04:31:35.385Z,100226.59
2023-04-22T04:34:02.032Z,100236.22
2023-04-22T04:36:29.416Z,100231.50
2023-04-22T04:38:56.838Z,100237.28
2023-04-22T04:41:23.764Z,100232.88
2023-04-22T04:43:50.433Z,100231.34
2023-04-22T04:46:17.099Z,100229.34
2023-04-22T04:48:46.001Z,100226.88
2023-04-22T04:51:13.057Z,100237.34
2023-04-22T04:53:40.694Z,100236.16
2023-04-22T04:56:07.236Z,100233.16
2023-04-22T04:58:33.951Z,100237.28
2023-04-22T05:01:00.550Z,100238.09
2023-04-22T05:03:27.252Z,100240.41
2023-04-22T05:05:54.107Z,100242.53
2023-04-22T05:08:20.752Z,100241.97
2023-04-22T05:10:47.403Z,100244.31
2023-04-22T05:13:14.070Z,100238.25
2023-04-22T05:15:40.713Z,100241.13
2023-04-22T05:18:07.575Z,100241.41
2023-04-22T05:20:36.178Z,100238.25
2023-04-22T05:23:03.033Z,100236.00
2023-04-22T05:25:29.923Z,100245.88
2023-04-22T05:27:56.467Z,100241.63
2023-04-22T05:30:23.039Z,100244.56
2023-04-22T05:32:49.660Z,100241.09
2023-04-22T05:35:16.281Z,100244.88
2023-04-22T05:37:42.871Z,100248.56
2023-04-22T05:40:09.822Z,100243.06
2023-04-22T05:42:36.515Z,100244.66
2023-04-22T05:45:03.128Z,100249.91
2023-04-22T05:47:30.523Z,100254.19
2023-04-22T05:49:57.130Z,100248.94
2023-04-22T05:52:23.688Z,100245.25
2023-04-22T05:54:50.262Z,100245.13
2023-04-22T05:57:16.891Z,100246.91
2023-04-22T05:59:43.625Z,100252.13
2023-04-22T06:02:10.370Z,100248.19
2023-04-22T06:04:38.101Z,100249.00
2023-04-22T06:07:04.960Z,100247.97
2023-04-22T06:09:31.508Z,100246.34
2023-04-22T06:11:58.253Z,100254.59
2023-04-22T06:14:24.861Z,100261.16
2023-04-22T06:16:53.025Z,100261.47
2023-04-22T06:19:19.895Z,100265.22
2023-04-22T06:21:46.496Z,100266.84
2023-04-22T06:24:13.120Z,100264.94
2023-04-22T06:26:39.798Z,100269.13
2023-04-22T06:29:06.631Z,100263.66
2023-04-22T06:31:33.260Z,100264.97
2023-04-22T06:33:59.924Z,100258.13
2023-04-22T06:36:30.288Z,100257.03
2023-04-22T06:38:57.247Z,100258.66
2023-04-22T06:41:24.007Z,100252.56
2023-04-22T06:43:50.806Z,100256.13
2023-04-22T06:46:17.802Z,100252.00
2023-04-22T06:48:44.560Z,100249.72
2023-04-22T06:51:11.174Z,100244.72
2023-04-22T06:53:37.751Z,100247.09
2023-04-22T06:56:05.448Z,100248.91
2023-04-22T06:58:32.013Z,100246.03
2023-04-22T07:00:58.643Z,100251.09
2023-04-22T07:03:25.323Z,100246.88
2023-04-22T07:05:51.996Z,100246.44
2023-04-22T07:08:19.712Z,100251.16
2023-04-22T07:10:46.265Z,100249.03
2023-04-22T07:13:12.852Z,100250.81
2023-04-22T07:15:39.435Z,100246.03
2023-04-22T07:18:06.051Z,100255.22
2023-04-22T07:20:32.660Z,100250.25
2023-04-22T07:22:59.224Z,100255.25
2023-04-22T07:25:25.785Z,100260.13
2023-04-22T07:27:52.358Z,100254.63
2023-04-22T07:30:19.015Z,100255.19
2023-04-22T07:32:47.576Z,100257.19
2023-04-22T07:35:15.462Z,100256.75
2023-04-22T07:37:42.074Z,100255.28
2023-04-22T07:40:11.856Z,100257.19
2023-04-22T07:42:39.683Z,100255.75
2023-04-22T07:45:06.936Z,100261.38
2023-04-22T07:47:33.535Z,100261.75
2023-04-22T07:50:00.250Z,100253.16
2023-04-22T07:52:26.787Z,100256.56
2023-04-22T07:54:53.376Z,100246.75
2023-04-22T07:57:22.525Z,100253.91
2023-04-22T07:59:49.863Z,100251.88
2023-04-22T08:02:16.535Z,100260.31
2023-04-22T08:04:43.587Z,100250.66
2023-04-22T08:07:29.695Z,100247.03
2023-04-22T08:09:56.901Z,100251.94
2023-04-22T08:12:23.765Z,100248.47
2023-04-22T08:14:50.733Z,100247.78
2023-04-22T08:17:17.416Z,100247.19
2023-04-22T08:19:45.616Z,100255.81
2023-04-22T08:22:13.576Z,100252.13
2023-04-22T08:24:40.376Z,100245.41
2023-04-22T08:27:07.280Z,100251.38
2023-04-22T08:29:34.097Z,100250.78
2023-04-22T08:32:01.006Z,100255.31
2023-04-22T08:34:28.935Z,100257.97
2023-04-22T08:36:55.520Z,100258.09
2023-04-22T08:39:22.082Z,100249.56
2023-04-22T08:41:50.341Z,100251.53
2023-04-22T08:44:17.291Z,100255.50
2023-04-22T08:46:46.957Z,100247.44
2023-04-22T08:49:17.689Z,100252.72
2023-04-22T08:51:46.082Z,100253.06
2023-04-22T08:54:12.798Z,100246.41
2023-04-22T08:56:42.288Z,100245.47
2023-04-22T08:59:11.494Z,100245.47
2023-04-22T09:01:41.838Z,100245.16
2023-04-22T09:04:14.555Z,100249.66
2023-04-22T09:06:41.365Z,100243.56
2023-04-22T09:09:09.110Z,100247.50
2023-04-22T09:11:36.494Z,100248.88
2023-04-22T09:14:06.747Z,100242.56
2023-04-22T09:16:34.326Z,100239.44
2023-04-22T09:19:01.628Z,100244.13
2023-04-22T09:21:29.091Z,100231.28
2023-04-22T09:23:57.093Z,100232.72
2023-04-22T09:26:26.138Z,100233.53
2023-04-22T09:29:00.961Z,100239.66
2023-04-22T09:31:28.702Z,100239.44
2023-04-22T09:33:57.641Z,100237.50
2023-04-22T09:36:28.284Z,100237.34
2023-04-22T09:38:57.577Z,100227.50
2023-04-22T09:41:31.589Z,100233.38
2023-04-22T09:44:02.883Z,100228.28
2023-04-22T09:46:31.132Z,100226.97
2023-04-22T09:49:01.760Z,100216.75
2023-04-22T09:51:29.358Z,100213.41
2023-04-22T09:54:08.639Z,100217.03
2023-04-22T09:56:52.101Z,100207.34
2023-04-22T09:59:26.582Z,100210.91
2023-04-22T10:01:56.008Z,100211.34
2023-04-22T10:04:24.868Z,100218.53
2023-04-22T10:06:54.871Z,100207.16
2023-04-22T10:09:24.277Z,100199.56
2023-04-22T10:11:54.122Z,100200.81
2023-04-22T10:14:24.273Z,100199.13
2023-04-22T10:16:54.441Z,100193.41
2023-04-22T10:19:23.368Z,100190.66
2023-04-22T10:21:56.738Z,100194.03
2023-04-22T10:24:27.617Z,100180.06
2023-04-22T10:26:57.781Z,100187.88
2023-04-22T10:29:36.107Z,100186.16
2023-04-22T10:32:17.932Z,100183.22
2023-04-22T10:34:48.239Z,100183.84
2023-04-22T10:37:18.817Z,100187.69
2023-04-22T10:40:07.814Z,100177.66
2023-04-22T10:42:35.334Z,100172.34
2023-04-22T10:45:04.114Z,100169.00
2023-04-22T10:47:36.866Z,100160.63
2023-04-22T10:50:28.741Z,100158.44
2023-04-22T10:53:20.921Z,100162.28
2023-04-22T10:55:53.672Z,100164.44
2023-04-22T10:58:22.004Z,100158.00
2023-04-22T11:00:54.209Z,100160.81
2023-04-22T11:03:27.905Z,100166.56
2023-04-22T11:06:16.194Z,100167.09
2023-04-22T11:08:47.827Z,100169.44
2023-04-22T11:11:16.606Z,100165.16
2023-04-22T11:13:44.100Z,100173.09
2023-04-22T11:16:10.940Z,100170.81
2023-04-22T11:18:38.000Z,100166.41
2023-04-22T11:21:08.456Z,100166.47
2023-04-22T11:23:36.850Z,100171.94
2023-04-22T11:26:05.733Z,100158.69
2023-04-22T11:28:33.540Z,100164.81
2023-04-22T11:31:09.933Z,100157.03
2023-04-22T11:33:39.149Z,100155.75
2023-04-22T11:36:10.093Z,100160.41
2023-04-22T11:38:36.689Z,100161.88
2023-04-22T11:41:04.999Z,100167.16
2023-04-22T11:43:34.189Z,100161.69
2023-04-22T11:46:00.907Z,100160.00
2023-04-22T11:48:27.580Z,100165.50
2023-04-22T11:51:11.064Z,100157.03
2023-04-22T11:53:39.556Z,100163.34
2023-04-22T11:56:06.252Z,100159.47
2023-04-22T11:58:32.949Z,100160.06
2023-04-22T12:00:59.822Z,100162.94
2023-04-22T12:03:28.818Z,100152.78
2023-04-22T12:05:58.491Z,100152.69
2023-04-22T12:08:42.147Z,100154.94
2023-04-22T12:11:10.721Z,100146.13
2023-04-22T12:13:37.256Z,100143.53
2023-04-22T12:16:05.622Z,100139.91
2023-04-22T12:18:34.090Z,100141.22
2023-04-22T12:21:08.064Z,100145.94
2023-04-22T12:24:04.955Z,100146.25
2023-04-22T12:26:32.068Z,100143.31
2023-04-22T12:29:00.393Z,100143.28
2023-04-22T12:31:28.274Z,100133.00
2023-04-22T12:33:56.011Z,100135.00
2023-04-22T12:36:23.386Z,100135.44
2023-04-22T12:38:51.139Z,100131.53
2023-04-22T12:41:17.771Z,100121.91
2023-04-22T12:43:44.485Z,100120.00
2023-04-22T12:46:11.321Z,100121.03
2023-04-22T12:48:38.131Z,100120.72
2023-04-22T12:51:08.184Z,100116.09
2023-04-22T12:53:35.043Z,100124.47
2023-04-22T12:56:01.646Z,100114.47
2023-04-22T12:58:28.235Z,100112.34
2023-04-22T13:00:54.866Z,100108.56
2023-04-22T13:03:21.757Z,100109.38
2023-04-22T13:05:48.520Z,100103.81
2023-04-22T13:08:15.130Z,100103.25
2023-04-22T13:10:41.701Z,100098.38
2023-04-22T13:15:39.135Z,100097.59
2023-04-22T13:18:06.105Z,100102.16
2023-04-22T13:20:32.833Z,100101.84
2023-04-22T13:22:59.411Z,100104.25
2023-04-22T13:25:26.047Z,100104.03
2023-04-22T13:27:52.675Z,100101.28
2023-04-22T13:30:20.113Z,100096.31
2023-04-22T13:32:46.894Z,100097.69
2023-04-22T13:35:13.555Z,100104.84
2023-04-22T13:37:40.131Z,100095.47
2023-04-22T13:40:08.300Z,100093.41
2023-04-22T13:42:35.164Z,100097.25
2023-04-22T13:45:01.732Z,100092.41
2023-04-22T13:47:28.327Z,100086.84
2023-04-22T13:49:54.893Z,100092.28
2023-04-22T13:52:21.809Z,100090.34
2023-04-22T13:54:48.366Z,100080.59
2023-04-22T13:57:15.001Z,100086.69
2023-04-22T13:59:42.230Z,100078.88
2023-04-22T14:02:09.071Z,100083.78
2023-04-22T14:04:35.794Z,100081.34
2023-04-22T14:07:04.068Z,100088.00
2023-04-22T14:09:31.047Z,100093.88
2023-04-22T14:11:58.290Z,100084.34
2023-04-22T14:14:24.882Z,100080.88
2023-04-22T14:16:51.996Z,100082.59
2023-04-22T14:19:18.744Z,100092.78
2023-04-22T14:21:45.719Z,100076.75
2023-04-22T14:24:12.335Z,100082.44
2023-04-22T14:26:39.046Z,100084.56
2023-04-22T14:29:05.857Z,100078.13
2023-04-22T14:31:32.464Z,100077.31
2023-04-22T14:33:59.038Z,100076.78
2023-04-22T14:36:25.615Z,100069.56
2023-04-22T14:38:52.179Z,100069.34
2023-04-22T14:41:18.856Z,100068.53
2023-04-22T14:43:45.687Z,100065.47
2023-04-22T14:46:12.334Z,100066.25
2023-04-22T14:48:39.440Z,100065.63
2023-04-22T14:51:06.346Z,100065.78
2023-04-22T14:53:33.784Z,100065.72
2023-04-22T14:56:00.615Z,100064.13
2023-04-22T14:58:31.184Z,100065.25
2023-04-22T15:00:59.912Z,100063.75
2023-04-22T15:03:26.901Z,100055.94
2023-04-22T15:05:55.027Z,100059.78
2023-04-22T15:08:21.770Z,100066.50
2023-04-22T15:10:48.331Z,100061.94
2023-04-22T15:13:14.999Z,100059.59
2023-04-22T15:15:41.638Z,100058.78
2023-04-22T15:18:08.970Z,100063.00
2023-04-22T15:20:35.905Z,100061.22
2023-04-22T15:23:03.614Z,100060.03
2023-04-22T15:25:30.634Z,100055.34
2023-04-22T15:27:57.365Z,100069.69
2023-04-22T15:30:24.201Z,100066.00
2023-04-22T15:32:50.873Z,100054.28
2023-04-22T15:35:17.946Z,100059.41
2023-04-22T15:37:46.199Z,100061.56
2023-04-22T15:40:12.843Z,100057.56
2023-04-22T15:42:39.444Z,100064.53
2023-04-22T15:45:06.832Z,100057.38
2023-04-22T15:47:34.785Z,100057.22
2023-04-22T15:50:08.890Z,100064.19
2023-04-22T15:52:37.741Z,100070.56
2023-04-22T15:55:06.163Z,100073.16
2023-04-22T15:57:34.954Z,100064.56
2023-04-22T16:00:13.037Z,100062.06
2023-04-22T16:02:41.846Z,100069.63
2023-04-22T16:05:09.179Z,100062.88
2023-04-22T16:07:35.817Z,100063.59
2023-04-22T16:10:02.698Z,100060.59
2023-04-22T16:12:30.460Z,100046.03
2023-04-22T16:14:57.957Z,100057.53
2023-04-22T16:17:25.088Z,100047.56
2023-04-22T16:19:51.789Z,100047.25
2023-04-22T16:22:20.125Z,100052.53
2023-04-22T16:24:46.700Z,100038.16
2023-04-22T16:27:16.635Z,100044.38
2023-04-22T16:29:43.865Z,100045.59
2023-04-22T16:32:11.000Z,100047.19
2023-04-22T16:34:38.343Z,100046.31
2023-04-22T16:37:05.779Z,100038.81
2023-04-22T16:39:32.795Z,100040.78
2023-04-22T16:41:59.804Z,100039.91
2023-04-22T16:44:26.443Z,100034.78
2023-04-22T16:46:53.021Z,100032.06
2023-04-22T16:49:19.750Z,100032.78
2023-04-22T16:51:46.530Z,100035.97
2023-04-22T16:54:13.241Z,100035.28
2023-04-22T16:56:39.901Z,100026.31
2023-04-22T16:59:06.472Z,100031.44
2023-04-22T17:01:33.139Z,100037.13
2023-04-22T17:03:59.917Z,100033.19
2023-04-22T17:06:28.053Z,100035.09
2023-04-22T17:08:54.706Z,100039.50
2023-04-22T17:11:22.221Z,100039.03
2023-04-22T17:13:48.905Z,100046.69
2023-04-22T17:16:15.678Z,100045.50
2023-04-22T17:18:42.595Z,100039.25
2023-04-22T17:21:09.472Z,100043.13
2023-04-22T17:23:36.337Z,100051.59
2023-04-22T17:26:02.953Z,100046.78
2023-04-22T17:28:29.609Z,100051.44
2023-04-22T17:30:56.316Z,100039.25
2023-04-22T17:33:23.239Z,100047.66
2023-04-22T17:35:49.793Z,100049.28
2023-04-22T17:38:16.386Z,100043.97
2023-04-22T17:40:43.800Z,100050.78
2023-04-22T17:43:10.712Z,100053.63
2023-04-22T17:45:37.274Z,100055.38
2023-04-22T17:48:04.128Z,100053.22
2023-04-22T17:50:30.776Z,100059.06
2023-04-22T17:52:58.108Z,100055.81
2023-04-22T17:55:24.809Z,100056.31
2023-04-22T17:57:54.040Z,100057.78
2023-04-22T18:00:21.968Z,100062.38
2023-04-22T18:02:48.820Z,100081.31
2023-04-22T18:05:15.475Z,100078.94
2023-04-22T18:07:42.067Z,100078.19
2023-04-22T18:10:09.660Z,100089.13
2023-04-22T18:12:36.286Z,100090.91
2023-04-22T18:15:03.484Z,100103.16
2023-04-22T18:17:30.659Z,100094.66
2023-04-22T18:20:09.831Z,100098.22
2023-04-22T18:22:44.026Z,100101.91
2023-04-22T18:25:10.615Z,100104.69
2023-04-22T18:27:37.291Z,100114.84
2023-04-22T18:30:04.316Z,100116.13
2023-04-22T18:32:31.028Z,100115.69
2023-04-22T18:34:57.635Z,100115.22
2023-04-22T18:37:24.766Z,100114.84
2023-04-22T18:39:51.330Z,100119.09
2023-04-22T18:42:18.454Z,100116.88
2023-04-22T18:44:45.035Z,100115.19
2023-04-22T18:47:11.767Z,100114.00
2023-04-22T18:49:38.416Z,100121.09
2023-04-22T18:52:05.249Z,100126.66
2023-04-22T18:54:31.831Z,100123.94
2023-04-22T18:56:58.462Z,100128.44
2023-04-22T18:59:25.091Z,100124.34
2023-04-22T19:01:51.896Z,100127.47
2023-04-22T19:04:18.610Z,100129.78
2023-04-22T19:06:45.350Z,100127.78
2023-04-22T19:09:11.974Z,100133.56
2023-04-22T19:11:38.763Z,100133.38
2023-04-22T19:14:05.699Z,100128.97
2023-04-22T19:16:32.326Z,100135.16
2023-04-22T19:18:58.948Z,100137.78
2023-04-22T19:21:26.789Z,100135.13
2023-04-22T19:23:53.405Z,100134.44
2023-04-22T19:26:21.060Z,100137.97
2023-04-22T19:28:48.740Z,100139.22
2023-04-22T19:31:19.015Z,100132.84
2023-04-22T19:33:46.080Z,100135.13
2023-04-22T19:36:12.682Z,100129.34
2023-04-22T19:38:39.238Z,100129.63
2023-04-22T19:41:05.806Z,100130.41
2023-04-22T19:43:32.432Z,100132.44
2023-04-22T19:45:59.130Z,100134.44
2023-04-22T19:48:26.246Z,100143.41
2023-04-22T19:50:53.400Z,100132.53
2023-04-22T19:53:21.719Z,100138.25
2023-04-22T19:55:48.686Z,100144.50
2023-04-22T19:58:16.525Z,100132.94
2023-04-22T20:00:43.692Z,100131.38
2023-04-22T20:03:10.807Z,100134.09
2023-04-22T20:05:37.709Z,100139.31
2023-04-22T20:08:07.633Z,100137.66
2023-04-22T20:10:34.403Z,100133.72
2023-04-22T20:13:03.309Z,100143.19
2023-04-22T20:15:30.144Z,100137.84
2023-04-22T20:17:56.909Z,100144.47
2023-04-22T20:20:23.868Z,100141.38
2023-04-22T20:22:53.394Z,100142.63
2023-04-22T20:25:23.086Z,100139.22
2023-04-22T20:27:49.865Z,100138.22
2023-04-22T20:30:16.727Z,100143.47
2023-04-22T20:32:43.506Z,100140.09
2023-04-22T20:35:15.091Z,100145.16
2023-04-22T20:37:42.785Z,100145.16
2023-04-22T20:40:11.209Z,100144.69
2023-04-22T20:42:37.923Z,100141.47
2023-04-22T20:45:05.717Z,100138.16
2023-04-22T20:47:32.612Z,100144.94
2023-04-22T20:49:59.435Z,100134.19
2023-04-22T20:52:26.114Z,100129.25
2023-04-22T20:54:55.198Z,100132.31
2023-04-22T20:57:21.861Z,100125.13
2023-04-22T20:59:48.407Z,100124.38
2023-04-22T21:02:16.998Z,100127.06
2023-04-22T21:04:43.914Z,100132.31
2023-04-22T21:07:14.378Z,100129.63
2023-04-22T21:09:41.682Z,100128.09
2023-04-22T21:12:10.490Z,100132.09
2023-04-22T21:14:43.263Z,100139.16
2023-04-22T21:17:21.630Z,100136.59
2023-04-22T21:19:50.753Z,100133.63
2023-04-22T21:22:20.233Z,100135.59
2023-04-22T21:24:51.721Z,100125.38
2023-04-22T21:27:19.724Z,100141.38
2023-04-22T21:29:46.852Z,100135.56
2023-04-22T21:32:13.604Z,100144.16
2023-04-22T21:34:40.583Z,100149.38
2023-04-22T21:37:08.129Z,100137.19
2023-04-22T21:39:35.543Z,100141.00
2023-04-22T21:42:03.077Z,100132.34
2023-04-22T21:44:29.650Z,100136.56
2023-04-22T21:46:56.277Z,100143.44
2023-04-22T21:49:23.167Z,100146.53
2023-04-22T21:51:50.092Z,100145.97
2023-04-22T21:54:16.715Z,100155.72
2023-04-22T21:56:43.396Z,100148.09
2023-04-22T21:59:09.960Z,100155.59
2023-04-22T22:01:36.582Z,100156.19
2023-04-22T22:04:03.463Z,100146.44
2023-04-22T22:06:30.929Z,100152.63
2023-04-22T22:08:57.506Z,100152.47
2023-04-22T22:11:30.447Z,100149.59
2023-04-22T22:13:58.315Z,100156.84
2023-04-22T22:16:25.754Z,100157.84
2023-04-22T22:18:52.672Z,100160.38
2023-04-22T22:21:19.270Z,100158.06
2023-04-22T22:23:45.934Z,100159.44
2023-04-22T22:26:12.772Z,100157.38
2023-04-22T22:28:39.607Z,100153.75
2023-04-22T22:31:08.041Z,100157.81
2023-04-22T22:33:34.702Z,100157.47
2023-04-22T22:36:01.441Z,100157.75
2023-04-22T22:38:27.972Z,100166.41
2023-04-22T22:40:54.526Z,100157.78
2023-04-22T22:43:21.103Z,100159.63
2023-04-22T22:45:47.889Z,100164.38
2023-04-22T22:48:14.593Z,100162.31
2023-04-22T22:50:41.169Z,100163.81
2023-04-22T22:53:07.754Z,100166.59
2023-04-22T22:55:34.712Z,100162.13
2023-04-22T22:58:01.253Z,100169.56
2023-04-22T23:00:27.964Z,100172.22
2023-04-22T23:02:55.624Z,100165.78
2023-04-22T23:05:22.391Z,100170.91
2023-04-22T23:07:48.935Z,100178.31
2023-04-22T23:10:15.795Z,100173.09
2023-04-22T23:12:42.501Z,100173.56
2023-04-22T23:15:10.526Z,100172.81
2023-04-22T23:17:37.577Z,100176.72
2023-04-22T23:20:04.821Z,100177.06
2023-04-22T23:22:32.886Z,100171.97
2023-04-22T23:24:59.689Z,100175.13
2023-04-22T23:27:26.537Z,100172.31
2023-04-22T23:29:53.399Z,100174.59
2023-04-22T23:32:21.317Z,100172.41
2023-04-22T23:34:50.903Z,100175.06
2023-04-22T23:37:19.182Z,100170.44
2023-04-22T23:39:45.944Z,100169.22
2023-04-22T23:42:12.574Z,100174.63
2023-04-22T23:44:39.390Z,100174.50
2023-04-22T23:47:06.405Z,100174.59
2023-04-22T23:49:33.004Z,100172.91
2023-04-22T23:51:59.632Z,100175.56
2023-04-22T23:54:26.945Z,100171.31
2023-04-22T23:56:53.981Z,100173.97
2023-04-22T23:59:20.788Z,100167.91
